Vinton, Louisiana
Current Conditions -  °F | °C
As of 10:15 AM on Monday 24 Nov 2014 (Local Time) from KUXL Reporting Station
Clear Clear  
Wind Chill: 58°   Ceiling: Unl
Heat Index: 58°   Visibility: 10mi
Dew Point: 45°   Wind: 14mph
Humidity: 61%   Direction: 330°NNW
Pressure: 30.01"   Gusts: 20mph
Location:  30.19°N, 93.58°W
Report Text: KUXL 241615Z AUTO 33012G17KT 10SM CLR 15/07 A3001 RMK AO2 T01470072
Loading
Personal Weather Stations






























Interactive Weather Map New forecast layout! Learn more

10-Day Weather Forecast

Advertisements
Track Severe Weather on mobile